Time;durP1;ratioP1;P1;durP2;ratioP2;P2;SDS_P1;SDS_P2;PMS_P1;PMS_P2;Temp;Humidity;BMP_temperature;BMP_pressure;BME280_temperature;BME280_humidity;BME280_pressure;Samples;Min_cycle;Max_cycle;Signal;HPM_P1;HPM_P2
2021/12/13 00:02:05;;;;;;;14.50;6.40;;;;;;;2.94;92.55;98430.72;5049120;28;20045;-60
2021/12/13 00:04:43;;;;;;;12.50;6.22;;;;;;;2.91;92.89;98436.47;5047973;28;20041;-60
2021/12/13 00:07:21;;;;;;;14.30;6.95;;;;;;;2.91;93.06;98431.91;5037631;28;20041;-60
2021/12/13 00:09:51;;;;;;;13.93;6.35;;;;;;;2.93;93.33;98432.59;5040019;28;20427;-60
2021/12/13 00:12:22;;;;;;;12.20;6.60;;;;;;;2.95;92.89;98427.88;5048259;28;20049;-62
2021/12/13 00:14:53;;;;;;;11.02;6.13;;;;;;;3.12;93.58;98435.81;5035342;28;20040;-60
2021/12/13 00:17:25;;;;;;;15.50;6.05;;;;;;;3.12;93.39;98430.47;5044132;28;20087;-60
2021/12/13 00:19:59;;;;;;;11.63;5.85;;;;;;;3.21;93.10;98433.94;5047807;28;20044;-60
2021/12/13 00:22:35;;;;;;;12.82;5.88;;;;;;;3.33;92.79;98435.19;5035633;28;20037;-60
2021/12/13 00:25:08;;;;;;;12.00;5.88;;;;;;;3.36;92.94;98431.31;5031223;28;20045;-60
2021/12/13 00:27:41;;;;;;;13.25;5.53;;;;;;;3.36;92.11;98437.47;5036930;28;20577;-60
2021/12/13 00:30:10;;;;;;;10.93;5.40;;;;;;;3.39;91.98;98441.63;5028403;28;20083;-60
2021/12/13 00:32:52;;;;;;;8.98;5.32;;;;;;;3.44;92.58;98433.06;5057068;28;20055;-60
2021/12/13 00:35:25;;;;;;;12.73;5.63;;;;;;;3.37;92.40;98430.28;5041667;28;20716;-60
2021/12/13 00:37:58;;;;;;;9.73;5.40;;;;;;;3.31;92.09;98439.06;5053403;28;20479;-60
2021/12/13 00:40:28;;;;;;;10.60;5.43;;;;;;;3.27;92.01;98440.41;5044247;28;20041;-59
2021/12/13 00:43:09;;;;;;;7.57;4.50;;;;;;;3.36;92.31;98444.69;5045253;28;20055;-60
2021/12/13 00:45:40;;;;;;;11.60;5.72;;;;;;;3.24;92.33;98447.78;5051828;28;20550;-60
2021/12/13 00:48:07;;;;;;;10.53;5.63;;;;;;;3.40;93.08;98451.34;5051654;28;20041;-61
2021/12/13 00:50:53;;;;;;;12.70;5.35;;;;;;;3.43;92.87;98450.97;5041112;28;20358;-60
2021/12/13 00:53:21;;;;;;;9.60;5.28;;;;;;;3.47;92.37;98451.47;5057875;28;20049;-60
2021/12/13 00:55:50;;;;;;;13.60;6.25;;;;;;;3.50;92.52;98446.59;5044856;28;20056;-60
2021/12/13 00:58:22;;;;;;;9.02;4.82;;;;;;;3.48;91.64;98453.13;5041349;28;20090;-60
2021/12/13 01:01:01;;;;;;;12.23;5.55;;;;;;;3.49;91.66;98447.59;5045125;28;20045;-60
2021/12/13 01:03:35;;;;;;;12.13;4.97;;;;;;;3.43;91.45;98442.13;5056880;28;20049;-60
2021/12/13 01:06:21;;;;;;;11.00;4.93;;;;;;;3.53;91.54;98442.72;5065701;28;20064;-60
2021/12/13 01:08:47;;;;;;;13.30;5.07;;;;;;;3.59;90.96;98433.13;5045165;28;20064;-60
2021/12/13 01:11:44;;;;;;;9.45;4.45;;;;;;;3.75;90.44;98435.66;5045205;28;20045;-60
2021/12/13 01:14:35;;;;;;;8.05;4.35;;;;;;;3.65;90.08;98435.09;5048148;28;20052;-60
2021/12/13 01:17:14;;;;;;;10.63;4.82;;;;;;;3.51;91.09;98434.84;5054148;28;20041;-59
2021/12/13 01:19:51;;;;;;;10.98;5.47;;;;;;;3.46;90.98;98436.44;5054797;28;20037;-58
2021/12/13 01:22:33;;;;;;;9.50;4.90;;;;;;;3.48;91.09;98434.38;5046168;28;20091;-58
2021/12/13 01:25:20;;;;;;;10.80;5.57;;;;;;;3.47;90.93;98443.44;5062274;28;20048;-58
2021/12/13 01:27:56;;;;;;;10.13;4.93;;;;;;;3.56;90.24;98442.34;5051223;28;20412;-59
2021/12/13 01:30:34;;;;;;;9.70;5.13;;;;;;;3.47;90.89;98441.56;5063000;28;20095;-58
2021/12/13 01:33:08;;;;;;;11.40;5.43;;;;;;;3.44;91.53;98441.97;5060137;28;20044;-59
2021/12/13 01:35:39;;;;;;;9.07;4.97;;;;;;;3.56;91.49;98446.88;5046182;28;20049;-58
2021/12/13 01:38:31;;;;;;;11.63;5.97;;;;;;;3.55;91.04;98450.56;5062205;28;20037;-59
2021/12/13 01:40:59;;;;;;;12.77;6.63;;;;;;;3.61;91.01;98448.00;5058890;28;20121;-59
2021/12/13 01:43:30;;;;;;;15.00;7.50;;;;;;;3.68;90.76;98452.66;5061999;28;20122;-59
2021/12/13 01:45:58;;;;;;;9.88;6.25;;;;;;;3.68;90.58;98450.78;5058399;28;20060;-59
2021/12/13 01:48:34;;;;;;;8.50;5.45;;;;;;;3.76;90.78;98461.44;5033830;28;20485;-59
2021/12/13 01:51:06;;;;;;;9.90;5.57;;;;;;;3.77;90.45;98454.25;5054688;28;21472;-59
2021/12/13 01:53:43;;;;;;;10.27;5.18;;;;;;;3.81;90.48;98457.38;5050086;28;20040;-59
2021/12/13 01:56:36;;;;;;;9.00;4.93;;;;;;;3.82;89.76;98454.53;5046087;28;20041;-60
2021/12/13 01:59:15;;;;;;;8.38;4.40;;;;;;;3.68;90.19;98449.97;5058280;28;20037;-59
2021/12/13 02:01:43;;;;;;;8.57;5.05;;;;;;;3.61;90.31;98445.31;5039142;28;20669;-59
2021/12/13 02:04:13;;;;;;;8.80;4.28;;;;;;;3.65;90.32;98443.13;5060647;28;20048;-60
2021/12/13 02:06:44;;;;;;;9.27;4.47;;;;;;;3.66;90.13;98438.59;5051036;28;20033;-59
2021/12/13 02:09:16;;;;;;;8.13;4.30;;;;;;;3.62;90.57;98440.81;5056744;28;20091;-59
2021/12/13 02:11:46;;;;;;;8.25;4.63;;;;;;;3.56;90.69;98441.50;5059456;28;20045;-59
2021/12/13 02:14:21;;;;;;;10.88;5.25;;;;;;;3.54;91.33;98439.00;5060336;28;20044;-59
2021/12/13 02:17:08;;;;;;;9.75;5.05;;;;;;;3.48;90.10;98443.25;5057112;28;20044;-59
2021/12/13 02:19:54;;;;;;;9.02;4.63;;;;;;;3.55;90.45;98439.84;5034101;28;20041;-60
2021/12/13 02:22:30;;;;;;;8.80;5.05;;;;;;;3.77;89.57;98446.19;5050398;28;20040;-58
2021/12/13 02:25:01;;;;;;;9.88;4.88;;;;;;;3.87;88.76;98448.63;5045223;28;20088;-60
2021/12/13 02:27:31;;;;;;;8.40;3.70;;;;;;;4.01;88.89;98447.81;5046920;28;20609;-59
2021/12/13 02:30:04;;;;;;;9.30;3.78;;;;;;;4.12;88.20;98451.88;5039150;28;20076;-59
2021/12/13 02:32:35;;;;;;;8.43;4.05;;;;;;;4.08;88.08;98445.22;5046945;28;20435;-59
2021/12/13 02:35:05;;;;;;;10.68;3.80;;;;;;;4.08;87.36;98455.94;5046225;28;20095;-59
2021/12/13 02:37:33;;;;;;;6.72;3.65;;;;;;;3.97;87.97;98449.19;5050830;28;20052;-59
2021/12/13 02:40:00;;;;;;;7.28;4.25;;;;;;;3.71;88.63;98450.44;5048821;28;20040;-59
2021/12/13 02:42:28;;;;;;;8.48;3.92;;;;;;;3.62;89.04;98441.63;5062114;28;20163;-59
2021/12/13 02:45:12;;;;;;;6.30;3.55;;;;;;;3.64;88.18;98444.97;5058178;28;20040;-59
2021/12/13 02:47:44;;;;;;;6.15;3.10;;;;;;;3.68;87.43;98449.97;5045068;28;20044;-59
2021/12/13 02:50:20;;;;;;;7.00;3.90;;;;;;;3.71;87.46;98446.91;5056992;28;20056;-59
2021/12/13 02:52:47;;;;;;;5.82;3.33;;;;;;;3.46;88.43;98458.66;5057342;28;20037;-59
2021/12/13 02:55:22;;;;;;;7.07;3.90;;;;;;;3.38;89.13;98450.69;5057631;28;20049;-59
2021/12/13 02:57:51;;;;;;;7.57;3.65;;;;;;;3.28;89.58;98450.09;5048776;28;20427;-59
2021/12/13 03:00:17;;;;;;;8.02;4.60;;;;;;;3.42;89.64;98443.16;5056781;28;20253;-60
2021/12/13 03:02:47;;;;;;;7.65;4.18;;;;;;;3.40;89.37;98448.69;5059350;28;20059;-59
2021/12/13 03:05:22;;;;;;;8.02;4.13;;;;;;;3.52;89.62;98446.41;5052732;28;20041;-60
2021/12/13 03:07:53;;;;;;;8.68;3.30;;;;;;;3.55;89.43;98445.22;5048481;28;20036;-60
2021/12/13 03:10:31;;;;;;;6.57;3.28;;;;;;;3.54;89.62;98444.38;5048843;28;20103;-60
2021/12/13 03:12:58;;;;;;;9.32;4.07;;;;;;;3.55;89.95;98450.56;5056444;28;20041;-59
2021/12/13 03:15:29;;;;;;;7.70;3.80;;;;;;;3.62;89.31;98446.16;5047524;28;20040;-59
2021/12/13 03:18:18;;;;;;;7.28;3.70;;;;;;;3.56;88.96;98453.06;5049548;28;20500;-60
2021/12/13 03:21:05;;;;;;;5.40;2.97;;;;;;;3.61;89.12;98456.03;5056050;28;20126;-59
2021/12/13 03:23:51;;;;;;;7.15;3.58;;;;;;;3.58;89.49;98459.06;5054896;28;20489;-60
2021/12/13 03:27:09;;;;;;;8.30;3.80;;;;;;;3.60;89.85;98469.59;5046480;28;20045;-59
2021/12/13 03:29:53;;;;;;;6.78;3.15;;;;;;;3.56;88.78;98461.09;5021792;28;20059;-59
2021/12/13 03:32:21;;;;;;;7.28;3.35;;;;;;;3.59;89.89;98458.06;5061212;28;20048;-59
2021/12/13 03:35:02;;;;;;;8.07;3.50;;;;;;;3.56;89.08;98454.91;5054062;28;20052;-59
2021/12/13 03:37:28;;;;;;;5.72;3.33;;;;;;;3.54;89.73;98454.25;5056090;28;20072;-60
2021/12/13 03:40:00;;;;;;;7.65;3.53;;;;;;;3.57;89.85;98454.72;5057111;28;20047;-59
2021/12/13 03:42:32;;;;;;;6.45;3.10;;;;;;;3.53;89.53;98457.97;5058049;28;20045;-59
2021/12/13 03:45:06;;;;;;;6.53;3.28;;;;;;;3.56;89.57;98463.78;5053045;28;20106;-60
2021/12/13 03:47:39;;;;;;;8.25;3.35;;;;;;;3.55;89.12;98472.00;5052490;28;20052;-59
2021/12/13 03:50:12;;;;;;;7.43;3.20;;;;;;;3.45;88.99;98478.44;5044294;28;20095;-60
2021/12/13 03:52:43;;;;;;;5.97;3.40;;;;;;;3.41;90.05;98466.41;5053176;28;20052;-59
2021/12/13 03:55:13;;;;;;;5.93;3.10;;;;;;;3.40;89.97;98472.78;5051270;28;20049;-60
2021/12/13 03:57:47;;;;;;;5.93;3.50;;;;;;;3.38;89.31;98480.13;5048583;28;20037;-59
2021/12/13 04:00:20;;;;;;;9.98;3.45;;;;;;;3.24;89.28;98479.91;5044428;28;20036;-59
2021/12/13 04:02:47;;;;;;;5.63;2.90;;;;;;;3.26;89.46;98474.38;5051821;28;20100;-60
2021/12/13 04:05:19;;;;;;;6.43;3.38;;;;;;;3.01;90.92;98476.34;5043579;28;20540;-59
2021/12/13 04:07:57;;;;;;;8.07;3.08;;;;;;;2.94;91.47;98469.03;5048356;28;20045;-59
2021/12/13 04:10:28;;;;;;;8.40;3.47;;;;;;;3.20;91.15;98467.03;5053558;28;20679;-60
2021/12/13 04:12:59;;;;;;;5.77;3.23;;;;;;;3.33;90.70;98475.34;5046786;28;20436;-59
2021/12/13 04:15:47;;;;;;;7.07;4.15;;;;;;;3.42;90.84;98473.41;5047908;28;20628;-59
2021/12/13 04:18:30;;;;;;;6.57;3.55;;;;;;;3.54;90.17;98478.38;5044090;28;20466;-59
2021/12/13 04:21:05;;;;;;;8.05;3.90;;;;;;;3.24;90.08;98474.53;5046734;28;20033;-59
2021/12/13 04:23:34;;;;;;;11.45;3.63;;;;;;;3.20;90.48;98477.75;5045011;28;20090;-59
2021/12/13 04:26:04;;;;;;;9.45;4.13;;;;;;;3.23;90.53;98480.91;5033730;28;20044;-59
2021/12/13 04:28:48;;;;;;;6.40;3.58;;;;;;;3.28;90.70;98476.88;5041297;28;20092;-60
2021/12/13 04:31:19;;;;;;;5.50;3.08;;;;;;;3.39;90.14;98476.44;5045465;28;20070;-59
2021/12/13 04:33:51;;;;;;;5.88;3.50;;;;;;;3.42;89.88;98469.94;5052595;28;20047;-60
2021/12/13 04:36:25;;;;;;;7.10;2.75;;;;;;;3.52;90.06;98475.88;5055373;28;20044;-59
2021/12/13 04:39:18;;;;;;;9.38;3.60;;;;;;;3.55;89.88;98477.34;5050323;28;20072;-59
2021/12/13 04:41:59;;;;;;;5.80;3.03;;;;;;;3.59;89.84;98475.97;5047760;28;20107;-59
2021/12/13 04:44:32;;;;;;;6.57;2.92;;;;;;;3.56;90.27;98473.66;5045906;28;20428;-59
2021/12/13 04:47:07;;;;;;;7.20;3.15;;;;;;;3.58;89.82;98477.00;5048488;28;20041;-59
2021/12/13 04:49:37;;;;;;;8.02;3.80;;;;;;;3.61;89.83;98474.78;5049679;28;20041;-59
2021/12/13 04:52:08;;;;;;;9.45;3.78;;;;;;;3.59;89.48;98478.66;5048925;28;20041;-59
2021/12/13 04:54:39;;;;;;;7.07;3.70;;;;;;;3.60;89.97;98478.47;5047416;28;20032;-59
2021/12/13 04:57:07;;;;;;;6.35;3.40;;;;;;;3.53;89.14;98479.38;5041149;28;20045;-59
2021/12/13 04:59:35;;;;;;;6.63;3.60;;;;;;;3.65;88.77;98475.28;5044241;28;20041;-59
2021/12/13 05:02:06;;;;;;;7.03;2.95;;;;;;;3.86;88.09;98473.75;5048786;28;20090;-59
2021/12/13 05:04:33;;;;;;;9.30;3.10;;;;;;;4.00;86.96;98475.63;5045346;28;20045;-59
2021/12/13 05:07:03;;;;;;;5.88;2.80;;;;;;;4.03;86.93;98479.78;5047900;28;20107;-60
2021/12/13 05:09:30;;;;;;;5.57;3.17;;;;;;;3.97;87.10;98483.19;5048548;28;20064;-59
2021/12/13 05:12:13;;;;;;;6.15;3.08;;;;;;;3.92;87.70;98480.22;5047589;28;20041;-60
2021/12/13 05:14:48;;;;;;;6.45;3.35;;;;;;;3.85;88.39;98485.47;5042060;28;20045;-60
2021/12/13 05:17:18;;;;;;;9.35;3.20;;;;;;;3.80;88.77;98490.56;5044296;28;20041;-60
2021/12/13 05:19:49;;;;;;;8.68;3.40;;;;;;;3.75;89.32;98497.28;5046684;28;20037;-60
2021/12/13 05:22:19;;;;;;;6.65;3.60;;;;;;;3.64;89.15;98492.34;5045142;28;20526;-59
2021/12/13 05:24:58;;;;;;;6.75;3.83;;;;;;;3.59;89.71;98494.72;5040653;28;20037;-59
2021/12/13 05:27:35;;;;;;;6.50;3.90;;;;;;;3.64;89.82;98495.84;5044066;28;20040;-59
2021/12/13 05:30:20;;;;;;;7.30;3.65;;;;;;;3.67;89.75;98500.03;5031918;28;20053;-60
2021/12/13 05:32:53;;;;;;;12.05;6.15;;;;;;;3.61;89.74;98501.56;5051752;28;20045;-59
2021/12/13 05:35:22;;;;;;;12.15;6.97;;;;;;;3.62;89.90;98503.22;5043124;28;20567;-59
2021/12/13 05:37:56;;;;;;;11.00;5.90;;;;;;;3.64;90.22;98506.56;5054014;28;20051;-60
2021/12/13 05:40:45;;;;;;;7.72;4.90;;;;;;;3.67;90.00;98513.41;5052666;28;20044;-61
2021/12/13 05:43:27;;;;;;;6.47;4.40;;;;;;;3.72;89.98;98516.38;5043502;28;20467;-59
2021/12/13 05:46:02;;;;;;;8.90;3.90;;;;;;;3.74;89.78;98518.88;5045308;28;20045;-59
2021/12/13 05:48:34;;;;;;;6.80;3.92;;;;;;;3.71;89.68;98517.41;5040412;28;20044;-61
2021/12/13 05:51:06;;;;;;;8.98;4.55;;;;;;;3.72;89.93;98520.94;5037272;28;20107;-60
2021/12/13 05:53:45;;;;;;;8.15;5.35;;;;;;;3.75;89.88;98525.91;5040897;28;20462;-61
2021/12/13 05:56:17;;;;;;;8.48;4.00;;;;;;;3.76;90.17;98528.41;5040877;28;20193;-61
2021/12/13 05:58:46;;;;;;;8.27;4.90;;;;;;;3.74;89.95;98524.25;5038102;28;20694;-60
2021/12/13 06:01:21;;;;;;;7.15;4.25;;;;;;;3.75;90.00;98526.75;5045023;28;20048;-61
2021/12/13 06:04:07;;;;;;;8.85;4.60;;;;;;;3.76;89.69;98525.72;5054912;28;20052;-61
2021/12/13 06:07:00;;;;;;;8.43;4.95;;;;;;;3.80;90.12;98528.91;5045744;28;20049;-61
2021/12/13 06:09:47;;;;;;;7.80;5.10;;;;;;;3.81;90.10;98529.72;5035422;28;20052;-61
2021/12/13 06:12:24;;;;;;;7.72;5.03;;;;;;;3.77;89.83;98531.94;5044731;28;20128;-61
2021/12/13 06:14:53;;;;;;;7.28;4.85;;;;;;;3.83;89.78;98533.06;5041586;28;20568;-61
2021/12/13 06:17:28;;;;;;;8.90;4.53;;;;;;;3.68;89.58;98535.69;5049863;28;20578;-61
2021/12/13 06:20:04;;;;;;;7.70;4.68;;;;;;;3.65;90.30;98534.19;5049640;28;20052;-61
2021/12/13 06:22:32;;;;;;;12.07;5.50;;;;;;;3.69;90.84;98532.00;5040085;28;20060;-61
2021/12/13 06:25:13;;;;;;;8.73;4.97;;;;;;;3.77;90.39;98534.59;5050622;28;20048;-61
2021/12/13 06:27:45;;;;;;;7.40;4.17;;;;;;;3.69;89.86;98526.63;5038392;28;20474;-64
2021/12/13 06:30:24;;;;;;;7.75;4.35;;;;;;;3.46;91.12;98530.16;5046035;28;20037;-61
2021/12/13 06:32:54;;;;;;;9.30;4.63;;;;;;;3.54;92.08;98530.06;5050993;28;20092;-60
2021/12/13 06:35:42;;;;;;;9.75;5.35;;;;;;;3.60;91.90;98533.88;5042491;28;20053;-61
2021/12/13 06:38:32;;;;;;;7.45;4.97;;;;;;;3.69;92.10;98540.03;5056486;28;20041;-61
2021/12/13 06:41:31;;;;;;;9.23;4.85;;;;;;;3.71;91.26;98538.00;5065662;28;20047;-60
2021/12/13 06:44:25;;;;;;;10.40;5.53;;;;;;;3.72;91.31;98539.69;5052996;28;20068;-61
2021/12/13 06:47:08;;;;;;;10.77;6.22;;;;;;;3.78;91.26;98547.00;5065729;28;20048;-60
2021/12/13 06:49:42;;;;;;;11.63;5.38;;;;;;;3.73;90.30;98542.16;5066329;28;20656;-61
2021/12/13 06:52:12;;;;;;;14.18;8.93;;;;;;;3.64;90.58;98543.22;5066070;28;20044;-60
2021/12/13 06:54:45;;;;;;;12.10;7.10;;;;;;;3.60;90.79;98555.31;5067402;28;20087;-60
2021/12/13 06:57:35;;;;;;;12.32;5.97;;;;;;;3.68;91.11;98549.09;5068045;28;20052;-60
2021/12/13 07:00:20;;;;;;;9.00;5.57;;;;;;;3.73;91.52;98549.38;5053612;28;20098;-61
2021/12/13 07:02:58;;;;;;;12.30;6.20;;;;;;;3.78;91.26;98560.38;5068175;28;20127;-60
2021/12/13 07:05:33;;;;;;;10.18;5.35;;;;;;;3.81;91.18;98556.50;5052148;28;20094;-61
2021/12/13 07:08:04;;;;;;;12.05;5.63;;;;;;;3.82;91.08;98550.97;5059866;28;20044;-60
2021/12/13 07:10:40;;;;;;;9.45;5.50;;;;;;;3.84;90.39;98556.97;5048630;28;20048;-61
2021/12/13 07:13:20;;;;;;;9.02;4.95;;;;;;;3.86;90.58;98556.81;5047122;28;20091;-61
2021/12/13 07:15:54;;;;;;;10.48;5.80;;;;;;;3.82;90.61;98552.81;5066574;28;20510;-61
2021/12/13 07:18:30;;;;;;;12.65;8.57;;;;;;;3.89;90.77;98553.78;5066972;28;20444;-61
2021/12/13 07:21:12;;;;;;;12.90;6.45;;;;;;;3.99;nan;98548.16;5055936;28;20071;-61
2021/12/13 07:24:16;;;;;;;8.48;5.07;;;;;;;4.06;90.24;98553.66;5052564;28;20126;-61
2021/12/13 07:26:52;;;;;;;8.50;5.35;;;;;;;4.00;89.89;98556.03;5024983;28;20620;-61
2021/12/13 07:29:25;;;;;;;9.90;4.93;;;;;;;3.87;89.96;98559.31;5055482;28;20040;-61
2021/12/13 07:32:25;;;;;;;10.73;4.80;;;;;;;4.07;89.41;98563.34;5059753;28;20519;-61
2021/12/13 07:35:01;;;;;;;11.93;6.18;;;;;;;3.83;89.85;98557.19;5045808;28;20045;-60
2021/12/13 07:37:47;;;;;;;10.70;5.25;;;;;;;3.79;90.07;98564.72;5047860;28;20094;-60
2021/12/13 07:40:26;;;;;;;13.18;5.32;;;;;;;3.97;89.86;98560.91;5061247;28;20435;-60
2021/12/13 07:43:10;;;;;;;11.93;5.97;;;;;;;4.00;89.16;98569.44;5045804;28;20049;-60
2021/12/13 07:45:40;;;;;;;9.57;5.65;;;;;;;3.84;90.08;98572.25;5044756;28;20373;-61
2021/12/13 07:48:32;;;;;;;24.83;14.52;;;;;;;3.64;91.18;98561.97;5053674;28;20656;-58
2021/12/13 07:51:02;;;;;;;21.05;13.65;;;;;;;3.58;91.55;98560.84;5059574;28;20041;-60
2021/12/13 07:53:41;;;;;;;15.75;9.25;;;;;;;3.57;91.68;98564.53;5066006;28;20110;-59
2021/12/13 07:56:11;;;;;;;14.82;7.63;;;;;;;3.66;91.45;98570.69;5066352;28;20048;-60
2021/12/13 07:58:44;;;;;;;13.23;6.85;;;;;;;3.73;91.20;98571.63;5065684;28;20037;-59
2021/12/13 08:01:25;;;;;;;7.68;4.90;;;;;;;3.99;90.62;98572.28;5063314;28;20046;-61
2021/12/13 08:04:07;;;;;;;10.57;5.38;;;;;;;4.17;88.94;98574.66;5037677;28;20764;-60
2021/12/13 08:06:43;;;;;;;;;;;;;;;4.08;89.42;98581.09;5066964;28;20075;-61
2021/12/13 08:09:15;;;;;;;12.85;6.00;;;;;;;4.01;90.04;98578.28;5066343;28;19925;-61
2021/12/13 08:11:45;;;;;;;7.63;4.68;;;;;;;4.10;89.86;98571.88;5059442;28;20048;-61
2021/12/13 08:14:14;;;;;;;9.93;4.85;;;;;;;4.21;89.96;98581.34;5041190;28;20032;-60
2021/12/13 08:16:46;;;;;;;7.95;5.20;;;;;;;4.18;89.75;98578.16;5065576;28;20110;-60
2021/12/13 08:19:20;;;;;;;10.30;5.30;;;;;;;4.19;90.19;98580.66;5066572;28;20639;-60
2021/12/13 08:21:51;;;;;;;11.90;6.03;;;;;;;4.18;90.54;98576.31;5066152;28;20033;-60
2021/12/13 08:24:32;;;;;;;12.82;6.80;;;;;;;4.21;90.24;98577.81;5066474;28;20070;-60
2021/12/13 08:27:07;;;;;;;10.32;5.85;;;;;;;4.24;90.21;98582.81;5064261;28;20048;-60
2021/12/13 08:29:38;;;;;;;8.35;5.38;;;;;;;4.29;90.19;98575.91;5055136;28;20431;-60
2021/12/13 08:32:12;;;;;;;10.95;7.03;;;;;;;4.29;90.42;98575.91;5066620;28;20045;-60
2021/12/13 08:34:54;;;;;;;12.52;7.25;;;;;;;4.30;90.29;98571.34;5065633;28;20052;-58
2021/12/13 08:37:28;;;;;;;12.52;6.43;;;;;;;4.28;90.78;98573.41;5051095;28;20049;-60
2021/12/13 08:40:04;;;;;;;11.68;6.80;;;;;;;4.28;90.85;98574.22;5034018;28;20025;-60
2021/12/13 08:42:36;;;;;;;11.82;6.70;;;;;;;4.35;90.86;98577.00;5065907;28;20106;-59
2021/12/13 08:45:27;;;;;;;13.48;6.10;;;;;;;4.37;90.89;98583.03;5064962;28;20461;-60
2021/12/13 08:48:16;;;;;;;11.65;5.93;;;;;;;4.36;91.11;98577.84;5059972;28;20444;-59
2021/12/13 08:50:50;;;;;;;9.55;5.63;;;;;;;4.46;91.11;98582.97;5043962;28;20048;-60
2021/12/13 08:53:24;;;;;;;10.77;5.72;;;;;;;4.61;90.73;98588.34;5059836;28;20418;-60
2021/12/13 08:56:21;;;;;;;9.43;5.63;;;;;;;4.73;90.06;98586.03;5065133;28;20515;-60
2021/12/13 08:59:10;;;;;;;7.85;4.22;;;;;;;4.98;89.43;98585.75;5063065;28;20060;-60
2021/12/13 09:01:45;;;;;;;9.80;4.97;;;;;;;5.04;88.81;98585.00;5062193;28;20045;-61
2021/12/13 09:04:31;;;;;;;10.20;5.13;;;;;;;5.04;89.43;98583.16;5065417;28;20044;-60
2021/12/13 09:07:00;;;;;;;10.95;5.22;;;;;;;5.03;89.58;98589.56;5064999;28;20040;-60
2021/12/13 09:09:27;;;;;;;8.77;4.70;;;;;;;5.06;89.77;98583.81;5065599;28;20090;-60
2021/12/13 09:12:00;;;;;;;9.05;5.75;;;;;;;5.10;89.71;98583.44;5048421;28;20036;-60
2021/12/13 09:14:26;;;;;;;10.93;6.00;;;;;;;5.19;89.37;98591.22;5051847;28;20044;-58
2021/12/13 09:17:10;;;;;;;11.57;5.78;;;;;;;5.18;89.82;98588.72;5065501;28;20510;-60
2021/12/13 09:19:52;;;;;;;16.25;9.88;;;;;;;5.30;89.82;98595.28;5065093;28;20033;-59
2021/12/13 09:22:21;;;;;;;;;;;;;;;5.34;89.47;98601.94;5065748;28;20045;-59
2021/12/13 09:24:51;;;;;;;15.07;6.78;;;;;;;5.40;89.67;98604.88;5064731;28;19920;-59
2021/12/13 09:27:34;;;;;;;11.80;6.78;;;;;;;5.57;88.88;98600.94;5064797;28;20040;-60
2021/12/13 09:30:07;;;;;;;19.95;9.75;;;;;;;5.75;87.89;98602.38;5054564;28;20060;-59
2021/12/13 09:32:50;;;;;;;34.67;19.90;;;;;;;5.97;87.80;98597.06;5065209;28;20049;-58
2021/12/13 09:35:34;;;;;;;7.43;4.65;;;;;;;6.04;86.45;98602.53;5065456;28;20782;-58
2021/12/13 09:38:22;;;;;;;7.68;4.25;;;;;;;6.40;85.61;98608.81;5061637;28;20157;-59
2021/12/13 09:40:59;;;;;;;7.57;3.47;;;;;;;6.61;84.57;98599.91;5065430;28;20033;-58
2021/12/13 09:43:37;;;;;;;6.97;3.65;;;;;;;6.54;84.79;98593.63;5064960;28;20048;-58
2021/12/13 09:46:04;;;;;;;7.65;3.45;;;;;;;6.67;84.20;98595.59;5065021;28;20036;-60
2021/12/13 09:48:41;;;;;;;5.18;2.85;;;;;;;6.79;83.66;98594.03;5065674;28;20551;-60
2021/12/13 09:51:15;;;;;;;5.95;2.67;;;;;;;6.92;83.71;98597.81;5064899;28;20045;-58
2021/12/13 09:53:42;;;;;;;5.63;2.65;;;;;;;6.97;82.99;98590.78;5064065;28;20500;-59
2021/12/13 09:56:13;;;;;;;4.45;2.50;;;;;;;7.05;83.20;98588.97;5047032;28;20676;-60
2021/12/13 09:58:48;;;;;;;5.30;2.88;;;;;;;7.20;82.12;98587.00;5063880;28;20064;-58
2021/12/13 10:01:32;;;;;;;10.15;3.65;;;;;;;7.26;81.90;98582.69;5056319;28;20045;-60
2021/12/13 10:04:02;;;;;;;7.30;3.03;;;;;;;7.21;81.85;98577.88;5059392;28;20079;-58
2021/12/13 10:06:40;;;;;;;6.47;2.75;;;;;;;7.17;83.08;98582.00;5050276;28;20053;-59
2021/12/13 10:09:16;;;;;;;6.25;2.55;;;;;;;7.25;82.64;98572.91;5051885;28;20032;-59
2021/12/13 10:11:52;;;;;;;7.18;3.65;;;;;;;7.37;81.62;98581.28;5043732;28;20041;-60
2021/12/13 10:14:27;;;;;;;6.15;3.35;;;;;;;7.47;82.13;98580.88;5048280;28;20048;-59
2021/12/13 10:16:55;;;;;;;42.08;16.17;;;;;;;7.11;82.76;98575.53;5054479;28;20125;-60
2021/12/13 10:19:35;;;;;;;77.28;27.45;;;;;;;7.21;82.91;98574.34;5052151;28;20551;-59
2021/12/13 10:22:04;;;;;;;6.63;3.95;;;;;;;7.25;82.49;98568.38;5044749;28;20930;-60
2021/12/13 10:24:40;;;;;;;6.95;4.10;;;;;;;7.04;83.45;98571.97;5043720;28;20052;-59
2021/12/13 10:27:09;;;;;;;4.90;2.75;;;;;;;7.15;83.30;98563.34;5046764;28;20056;-59
2021/12/13 10:29:42;;;;;;;6.18;2.58;;;;;;;7.51;81.24;98572.19;5041916;28;20063;-58
2021/12/13 10:32:17;;;;;;;5.75;2.80;;;;;;;7.28;82.55;98565.28;5049924;28;20049;-58
2021/12/13 10:34:49;;;;;;;5.65;3.00;;;;;;;7.42;82.06;98566.13;5056020;28;20566;-59
2021/12/13 10:37:24;;;;;;;4.88;2.42;;;;;;;7.63;82.00;98571.63;5048535;28;20527;-58
2021/12/13 10:39:55;;;;;;;4.75;2.50;;;;;;;7.70;81.67;98564.34;5046440;28;20045;-59
2021/12/13 10:42:33;;;;;;;5.43;2.85;;;;;;;7.72;81.36;98558.75;5048216;28;20107;-60
2021/12/13 10:45:06;;;;;;;6.70;3.97;;;;;;;7.79;80.73;98556.91;5053849;28;20082;-60
2021/12/13 10:47:37;;;;;;;7.68;4.88;;;;;;;7.73;81.30;98552.31;5036919;28;20057;-60
2021/12/13 10:50:12;;;;;;;5.80;2.50;;;;;;;7.78;80.75;98553.38;5042757;28;20597;-59
2021/12/13 10:52:43;;;;;;;4.50;2.08;;;;;;;7.86;80.93;98548.84;5052608;28;20048;-59
2021/12/13 10:55:33;;;;;;;4.43;2.08;;;;;;;7.94;79.84;98552.19;5043335;28;20090;-58
2021/12/13 10:58:00;;;;;;;4.30;2.17;;;;;;;7.93;80.46;98553.19;5038779;28;20052;-59
2021/12/13 11:00:35;;;;;;;6.18;2.30;;;;;;;7.97;80.48;98552.78;5057389;28;20302;-60
2021/12/13 11:03:08;;;;;;;3.58;1.90;;;;;;;8.09;80.45;98550.31;5050589;28;20553;-60
2021/12/13 11:05:35;;;;;;;2.60;1.17;;;;;;;8.08;79.72;98544.09;5055264;28;20555;-60
2021/12/13 11:08:05;;;;;;;6.72;1.63;;;;;;;7.99;80.20;98542.66;5043108;28;20590;-58
2021/12/13 11:10:37;;;;;;;5.47;1.20;;;;;;;8.06;79.92;98546.16;5046423;28;20872;-60
2021/12/13 11:13:22;;;;;;;5.00;2.05;;;;;;;7.49;82.56;98549.16;5053838;28;20098;-60
2021/12/13 11:15:54;;;;;;;4.13;1.90;;;;;;;7.77;82.27;98545.50;5047936;28;20107;-60
2021/12/13 11:18:27;;;;;;;3.70;1.30;;;;;;;7.71;81.89;98541.78;5045026;28;20060;-60
2021/12/13 11:21:01;;;;;;;3.40;1.50;;;;;;;7.87;81.94;98535.16;5050856;28;20045;-59
2021/12/13 11:23:28;;;;;;;2.88;1.30;;;;;;;7.99;81.42;98534.56;5048733;28;20040;-59
2021/12/13 11:25:58;;;;;;;3.78;1.30;;;;;;;7.70;82.38;98525.78;5038235;28;20500;-59
2021/12/13 11:28:29;;;;;;;6.20;1.98;;;;;;;7.67;82.11;98527.84;5054160;28;20448;-60
2021/12/13 11:30:56;;;;;;;5.22;1.70;;;;;;;7.91;82.38;98522.91;5049068;28;20040;-59
2021/12/13 11:33:38;;;;;;;6.25;1.98;;;;;;;8.14;81.53;98521.69;5054017;28;20464;-60
2021/12/13 11:36:08;;;;;;;4.50;1.35;;;;;;;8.19;81.00;98529.97;5053016;28;20043;-59
2021/12/13 11:39:00;;;;;;;5.63;2.25;;;;;;;8.10;80.72;98533.91;5053651;28;20056;-59
2021/12/13 11:41:56;;;;;;;5.47;2.15;;;;;;;7.98;81.47;98530.16;5037755;28;20056;-58
2021/12/13 11:44:44;;;;;;;4.70;2.00;;;;;;;8.10;80.81;98533.91;5035085;28;20041;-59
2021/12/13 11:47:29;;;;;;;5.28;2.08;;;;;;;8.06;80.85;98538.06;5059112;28;20053;-60
2021/12/13 11:50:18;;;;;;;6.20;1.92;;;;;;;8.17;80.97;98534.75;5052353;28;20033;-60
2021/12/13 11:53:22;;;;;;;4.15;1.80;;;;;;;7.92;81.81;98526.44;5046149;28;20056;-59
2021/12/13 11:56:30;;;;;;;5.93;2.65;;;;;;;7.78;82.18;98531.00;5059652;28;20047;-59
2021/12/13 11:59:12;;;;;;;4.00;1.95;;;;;;;7.68;82.51;98524.13;5064364;28;20067;-60
2021/12/13 12:02:00;;;;;;;7.32;3.03;;;;;;;7.53;83.43;98526.19;5057520;28;20053;-60
2021/12/13 12:04:51;;;;;;;6.13;2.63;;;;;;;7.52;83.19;98535.31;5051630;28;20492;-61
2021/12/13 12:07:45;;;;;;;5.75;2.63;;;;;;;7.67;82.89;98535.94;5046522;28;20047;-60
2021/12/13 12:10:38;;;;;;;5.18;2.45;;;;;;;7.76;82.32;98533.06;5027563;28;20049;-61
2021/12/13 12:13:15;;;;;;;6.80;2.97;;;;;;;7.78;82.64;98526.41;5053440;28;20037;-60
2021/12/13 12:15:45;;;;;;;8.48;4.20;;;;;;;7.97;82.02;98518.56;5056304;28;20106;-61
2021/12/13 12:18:21;;;;;;;7.82;4.47;;;;;;;8.24;80.91;98520.41;5047581;28;20493;-61
2021/12/13 12:20:53;;;;;;;4.82;2.50;;;;;;;8.36;79.24;98526.03;5042012;28;20048;-61
2021/12/13 12:23:32;;;;;;;5.88;2.33;;;;;;;8.33;79.53;98527.25;5048514;28;20571;-61